Terminal Aerodrome Forecast
Issued by NWS

Home | Current Version | Previous Version | Text Only | Print | Product List | Glossary On
Versions: 1 2 3 4 5 6 7 8 9 10 11 12 13 14 15 16 17 18 19 20 21 22 23 24 25 26 27 28 29
000
FTUS41 KOKX 170835 AAB
TAFGON
TAF AMD
KGON 170835Z 1709/1806 26006KT P6SM OVC100
     FM171500 VRB04KT P6SM SCT050 OVC060
     FM171900 09006KT 3SM -RA BKN012 OVC025
     FM180200 08011KT 1SM -RA BR BKN007 OVC015=

USA.gov is the U.S. government's official web portal to all federal, state and local government web resources and services.